Skip to main content

NOAA/GLERL Met Station at Muskegon, MI

Previous 5 days (top of hour only)
See also Previous 3 Hours (2 minute increments)
Jump down to Data
Switch to [English][Metric]
Zoom: Click and drag, Pan: shift-click and drag, Unzoom: double-click, Unzoom All






Note: Speed = mean wind during 2-minute period at top of hour,
Gust = max wind during 2-minute period at top of hour,
Peak = max wind during entire hour.
• See also 5-day windrose plot


NOAA/GLERL Met Station at Muskegon, MI

Previous 5 days (top of hour only)
See also Previous 3 Hours (2 minute increments)
Jump up to Graphs
Switch to [English][Metric]
                  Wind  Wind  Wind   Air   Dew   Rel     Sta   PAR
                   Spd   Gst   Dir  Temp    Pt   Hum    Pres uE/m2/
YYYY-MM-DD   EST   kts   kts   deg     F     F     %   in Hg   sec
2022-11-27 09:00   6.6   7.2    69  39.4  30.5  70.1   28.91    78
2022-11-27 08:00   6.2   7.8    97  39.4  32.1  74.8   28.95     6
2022-11-27 07:00   1.6   2.5   129  39.2  33.2  78.8   28.97     2
2022-11-27 06:00   7.2   8.4   101  39.7  34.3  80.6   28.95     2
2022-11-27 05:00   7.0   7.6    97  41.0  37.9  88.7   28.97     2
2022-11-27 04:00   2.9   3.5   214  44.2  40.7  87.3   29.03     2
2022-11-27 03:00   6.2   7.0   214  44.6  40.8  86.5   29.06     2
2022-11-27 02:00  10.7  11.5   219  45.0  40.5  84.1   29.09     2
2022-11-27 01:00   8.4   9.9   237  45.9  40.0  79.7   29.11     2
2022-11-27 00:00  15.0  16.7   218  45.5  40.0  80.9   29.14     2
2022-11-26 23:00  17.1  18.5   219  46.2  39.6  77.4   29.15     2
2022-11-26 22:00  19.6  21.2   211  46.0  39.6  77.9   29.17     2
2022-11-26 21:00  17.1  18.1   208  46.0  40.2  79.7   29.18     2
2022-11-26 20:00  19.2  20.6   217  46.6  38.6  73.4   29.20     2
2022-11-26 19:00  20.0  22.0   217  46.8  37.9  71.1   29.22     2
2022-11-26 18:00  21.0  22.4   220  46.8  37.6  70.0   29.23     2
2022-11-26 17:00  19.2  20.2   222  46.9  37.2  68.5   29.26   160
2022-11-26 16:00  21.2  23.3   222  46.8  37.1  68.7   29.28   686
2022-11-26 15:00  18.5  20.8   223  46.4  37.5  70.8   29.28  1176
2022-11-26 14:00  21.0  22.7   230  45.7  37.7  73.5   29.31  1354
2022-11-26 13:00  17.1  18.5   235  45.5  37.5  73.3   29.33  1416
2022-11-26 12:00  18.3  20.0   229  45.5  37.5  73.2   29.35  1414
2022-11-26 11:00  21.4  24.1   250  45.1  35.8  69.6   29.39  1358
2022-11-26 10:00  19.8  23.3   251  44.8  35.4  69.2   29.39   904
2022-11-26 09:00  21.4  23.3   255  44.6  35.5  70.0   29.39   530
2022-11-26 08:00  21.8  24.7   255  44.6  36.2  72.2   29.40    41
2022-11-26 07:00  20.4  22.7   251  44.6  36.5  72.9   29.40     2
2022-11-26 06:00  18.1  19.8   249  44.8  36.8  73.3   29.40     2
2022-11-26 05:00  14.0  15.0   251  44.6  36.6  73.2   29.41     2
2022-11-26 04:00  13.0  14.8   265  44.4  36.7  73.9   29.44     2
2022-11-26 03:00  15.9  17.7   260  44.2  36.6  74.3   29.44     2
2022-11-26 02:00  15.4  16.7   269  44.8  37.0  73.8   29.45     2
2022-11-26 01:00  16.7  18.7   275  44.6  37.2  75.0   29.46     2
2022-11-26 00:00  19.6  22.7   279  45.0  37.5  74.8   29.47     2
2022-11-25 23:00  18.1  20.2   275  45.5  37.5  73.2   29.47     2
2022-11-25 22:00  11.1  12.2   256  45.0  38.0  76.4   29.48     2
2022-11-25 21:00   8.7   9.3   250  44.6  38.3  78.4   29.48     2
2022-11-25 20:00   8.9   9.7   276  44.4  36.9  74.6   29.49     2
2022-11-25 19:00  12.4  13.4   268  44.2  36.2  73.0   29.50     2
2022-11-25 18:00  12.6  13.8   285  43.7  34.7  70.4   29.51     2
2022-11-25 17:00  11.9  13.0   288  43.3  34.7  71.3   29.51   189
2022-11-25 16:00   9.7  10.9   295  43.2  34.8  72.1   29.50   527
2022-11-25 15:00  13.8  15.0   300  42.4  34.0  71.8   29.51  1215
2022-11-25 14:00  11.7  12.4   297  42.3  34.5  73.8   29.50  1370
2022-11-25 13:00  10.1  11.3   300  42.1  35.5  77.2   29.52  1604
2022-11-25 12:00  10.3  12.1   305  41.7  35.0  76.8   29.54  1425
2022-11-25 11:00  12.1  13.4   301  41.5  34.8  76.7   29.53  1393
2022-11-25 10:00  11.9  13.4   321  41.4  34.1  75.0   29.52  1013
2022-11-25 09:00  10.7  12.1   317  40.6  34.2  77.5   29.51   354
2022-11-25 08:00  14.0  15.6   343  40.6  34.0  76.9   29.50    24
2022-11-25 07:00  12.6  14.6   335  40.6  34.1  77.3   29.49     2
2022-11-25 06:00  17.1  19.1   336  41.0  34.8  78.4   29.47     2
2022-11-25 05:00  19.1  21.0   335  41.5  34.3  75.3   29.44     2
2022-11-25 04:00  22.6  25.1   343  41.7  36.0  80.0   29.44     2
2022-11-25 03:00  23.5  27.0   350  42.4  37.7  83.2   29.42     2
2022-11-25 02:00  24.1  27.0   339  43.2  37.8  81.3   29.41     2
2022-11-25 01:00  19.4  22.2   344  44.1  38.4  80.4   29.38     2
2022-11-25 00:00  22.9  26.0   336  44.4  39.0  81.0   29.36     2
2022-11-24 23:00  25.7  27.4   319  45.9  41.1  83.4   29.36     2
2022-11-24 22:00  19.6  21.8   277  46.4  42.0  84.4   29.35     2
2022-11-24 21:00  17.5  19.2   259  45.3  42.8  90.8   29.35     2
2022-11-24 20:00  17.1  20.2   258  44.6  42.5  92.2   29.37     2
2022-11-24 19:00  11.5  12.2   218  44.4  42.1  91.5   29.37     2
2022-11-24 18:00  11.5  12.4   217  43.7  42.0  93.6   29.39     2
2022-11-24 17:00  17.3  19.2   253  45.0  40.0  82.7   29.41     8
2022-11-24 16:00  14.2  16.3   248  45.7  39.8  79.8   29.41    63
2022-11-24 15:00  13.2  14.2   218  45.7  41.8  86.2   29.42   107
2022-11-24 14:00  15.4  17.5   215  46.8  40.4  78.2   29.43   213
2022-11-24 13:00  14.6  15.6   214  46.8  40.5  78.5   29.47   226
2022-11-24 12:00  13.2  14.2   194  47.1  41.1  79.5   29.48   519
2022-11-24 11:00  12.4  13.6   188  46.0  40.4  80.6   29.50  1227
2022-11-24 10:00  14.4  15.2   196  46.4  41.3  82.1   29.52   942
2022-11-24 09:00  12.2  12.6   187  43.5  37.7  79.7   29.53   352
2022-11-24 08:00  10.3  10.9   185  41.9  36.4  80.6   29.53    33
2022-11-24 07:00  12.1  12.4   181  42.6  36.8  79.5   29.52     2
2022-11-24 06:00  10.9  11.9   174  43.5  37.7  79.6   29.52     2
2022-11-24 05:00  12.2  12.6   184  43.5  38.4  81.8   29.53     2
2022-11-24 04:00  12.4  13.0   187  45.1  40.9  84.9   29.54     2
2022-11-24 03:00   9.7  10.3   205  44.8  41.4  87.8   29.55     2
2022-11-24 02:00  10.3  10.9   192  45.0  42.1  89.7   29.55     2
2022-11-24 01:00  12.2  13.0   217  45.5  42.0  87.4   29.55     2
2022-11-24 00:00  10.7  11.3   197  45.7  42.2  87.5   29.55     2
2022-11-23 23:00  12.2  12.4   199  44.8  40.3  84.2   29.55     2
2022-11-23 22:00  11.9  12.2   180  44.8  37.9  76.6   29.54     2
2022-11-23 21:00   6.8   8.2   172  40.6  36.5  85.1   29.52     2
2022-11-23 20:00   7.6   8.7   129  40.8  38.0  89.5   29.52     2
2022-11-23 19:00   5.4   6.2   133  40.8  38.5  91.2   29.52     2
2022-11-23 18:00   7.0   7.8   175  43.7  41.0  90.2   29.51     2
2022-11-23 17:00  12.1  12.4   184  43.7  41.1  90.6   29.51    58
2022-11-23 16:00   9.3   9.5   182  45.0  40.6  84.6   29.50   670
2022-11-23 15:00  10.7  11.3   184  45.0  39.9  82.2   29.50  1088
2022-11-23 14:00  11.3  12.1   208  47.5  41.1  78.3   29.51  1295
2022-11-23 13:00  11.7  12.6   216  46.9  40.8  78.9   29.52  1368
2022-11-23 12:00   8.6   8.9   184  45.5  40.3  81.9   29.52  1332
2022-11-23 11:00  11.1  11.5   179  42.4  37.5  82.4   29.54  1234
2022-11-23 10:00   5.2   5.6   114  36.0  32.1  85.8   29.55   927
2022-11-23 09:00   5.2   5.8   117  32.7  30.4  90.9   29.53   223
2022-11-23 08:00   6.2   7.0   119  31.3  29.5  93.0   29.52    53
2022-11-23 07:00   6.6   7.4   112  30.7  29.0  93.2   29.51     2
2022-11-23 06:00   6.2   7.2   107  31.6  29.7  92.3   29.50     2
2022-11-23 05:00   4.5   7.2   121  32.0  29.7  91.1   29.50     2
2022-11-23 04:00   5.1   6.6   152  31.5  28.5  88.7   29.50     2
2022-11-23 03:00   5.4   5.8   151  31.5  28.9  90.0   29.50     2
2022-11-23 02:00   5.6   6.6   113  32.0  29.5  90.3   29.50     2
2022-11-23 01:00   2.7   3.5   130  32.2  29.5  89.8   29.51     2
2022-11-23 00:00   1.9   2.7   245  34.2  31.0  88.2   29.51     2
2022-11-22 23:00   7.2   8.0   279  42.8  34.0  70.8   29.51     2
2022-11-22 22:00   7.0   8.0   288  42.4  31.1  63.9   29.50     2
2022-11-22 21:00  10.5  11.1   276  42.3  30.1  61.8   29.51     2
2022-11-22 20:00   9.9  11.9   277  41.7  29.1  60.6   29.51     2
2022-11-22 19:00  11.9  13.2   285  41.5  27.7  57.6   29.52     2